»·PEaware :: SWA393 KPHX-KLAS

SWA393 :: KPHX-KLAS

FLIGHT INFORMATION

Flight Status: Arrived
Operator:
Southwest Airlines
More flights by this operator :: More flights under this callsign
Pilot: Alfredo R. (12181)
Aircraft: BOEING 737-700
(B737)
More flights by this aircraft type
Origin: KPHX Phoenix Sky Harbor Intl
United States
Destination: KLAS McCarran Intl
United States
More flights between these airports :: More routes between these airports
Route: ZEPER2 RRSTA IGM TYSSN5
File this flight plan on PilotEdge
Remarks:
Altitude:
(Current/Filed)
280ft
Speed:
(Current/Filed)
425kts
Departed: 30-May-20 04:41 PM
Arrived: 30-May-20 05:23 PM
Distance/Time
Traveled:
222nm/0:42
Distance/Time
To Go:
Arrived

Flight Plot

Page will automatically refresh every two minutes.

Flight plan parsing failed; only flown route is shown


Map Options




Map Legend


Flown Route
Filed Route
Departure Airport
Arrival Airport
Navaid (VOR, NDB)
Fix

Horizontal Profiles

Position Reports

Time Latitude Longitude Heading Altitude Ground
Speed
30-May-20 16:15 33.433657 -111.996196 314 1139ft 0kts
30-May-20 16:16 33.433657 -111.996196 314 1139ft 0kts
30-May-20 16:17 33.433657 -111.996196 314 1139ft 0kts
30-May-20 16:18 33.433657 -111.996196 314 1139ft 0kts
30-May-20 16:19 33.433657 -111.996196 314 1139ft 0kts
30-May-20 16:20 33.433657 -111.996196 314 1139ft 0kts
30-May-20 16:21 33.433657 -111.996196 314 1139ft 0kts
30-May-20 16:22 33.433657 -111.996196 314 1139ft 0kts
30-May-20 16:23 33.433657 -111.996196 314 1139ft 0kts
30-May-20 16:24 33.433657 -111.996196 314 1139ft 0kts
30-May-20 16:25 33.433642 -111.996177 314 1139ft 0kts
30-May-20 16:26 33.433642 -111.996177 314 1139ft 0kts
30-May-20 16:27 33.433642 -111.996177 314 1139ft 0kts
30-May-20 16:28 33.433642 -111.996177 314 1139ft 0kts
30-May-20 16:29 33.433491 -111.995816 228 1139ft 2kts
30-May-20 16:30 33.433298 -111.995757 180 1139ft 1kts
30-May-20 16:31 33.433276 -111.995757 180 1139ft 0kts
30-May-20 16:32 33.433276 -111.995757 180 1139ft 0kts
30-May-20 16:33 33.433276 -111.995757 180 1139ft 0kts
30-May-20 16:34 33.433276 -111.995757 180 1139ft 0kts
30-May-20 16:35 33.432920 -111.995533 126 1139ft 4kts
30-May-20 16:36 33.432607 -111.993509 150 1139ft 0kts
30-May-20 16:37 33.432011 -111.993458 181 1139ft 0kts
30-May-20 16:38 33.432011 -111.993458 181 1139ft 0kts
30-May-20 16:39 33.431751 -111.993467 181 1139ft 5kts
30-May-20 16:41 33.431043 -112.002964 269 1139ft 122kts
30-May-20 16:42 33.430714 -112.058161 273 3103ft 204kts
30-May-20 16:43 33.433652 -112.135822 269 6778ft 247kts
30-May-20 16:44 33.478801 -112.195245 351 10658ft 289kts
30-May-20 16:45 33.563276 -112.198719 354 13375ft 342kts
30-May-20 16:46 33.662149 -112.215949 343 16461ft 372kts
30-May-20 16:47 33.765264 -112.249421 343 19623ft 391kts
30-May-20 16:48 33.874577 -112.284730 342 22402ft 411kts
30-May-20 16:49 33.988222 -112.321937 339 25049ft 425kts
30-May-20 16:50 34.090435 -112.397450 317 27490ft 428kts
30-May-20 16:51 34.185255 -112.492823 317 27806ft 454kts
30-May-20 16:52 34.283819 -112.592210 317 28063ft 452kts
30-May-20 16:53 34.380994 -112.690528 316 28081ft 452kts
30-May-20 16:54 34.475993 -112.786966 315 28082ft 453kts
30-May-20 16:55 34.562643 -112.875180 315 28083ft 453kts
30-May-20 16:56 34.664230 -112.979294 315 28083ft 453kts
30-May-20 16:57 34.757646 -113.080892 305 28086ft 447kts
30-May-20 16:57 34.819307 -113.182217 301 28084ft 447kts
30-May-20 16:59 34.904535 -113.326164 301 27966ft 448kts
30-May-20 17:00 34.976542 -113.448129 301 27897ft 444kts
30-May-20 17:00 35.036208 -113.549507 301 26780ft 440kts
30-May-20 17:01 35.105885 -113.668313 300 25074ft 433kts
30-May-20 17:03 35.187393 -113.807721 299 22909ft 416kts
30-May-20 17:03 35.243865 -113.904635 300 21362ft 411kts
30-May-20 17:04 35.331819 -114.000492 317 19515ft 417kts
30-May-20 17:05 35.426352 -114.088182 317 17635ft 408kts
30-May-20 17:06 35.519016 -114.174565 317 15757ft 399kts
30-May-20 17:07 35.608064 -114.257580 317 13892ft 377kts
30-May-20 17:08 35.688938 -114.333205 317 12049ft 339kts
30-May-20 17:09 35.766423 -114.394511 333 10761ft 331kts
30-May-20 17:10 35.853195 -114.435277 335 10168ft 327kts
30-May-20 17:11 35.939677 -114.475765 335 9573ft 323kts
30-May-20 17:12 36.013716 -114.524629 309 8958ft 267kts
30-May-20 17:13 36.050211 -114.599552 278 8412ft 241kts
30-May-20 17:14 36.065060 -114.679889 274 7905ft 233kts
30-May-20 17:15 36.073451 -114.759525 262 7460ft 227kts
30-May-20 17:16 36.073391 -114.835174 262 6504ft 208kts
30-May-20 17:17 36.073594 -114.899356 260 5498ft 166kts
30-May-20 17:18 36.073549 -114.956561 260 4746ft 171kts
30-May-20 17:19 36.073639 -115.014925 261 3858ft 166kts
30-May-20 17:20 36.073644 -115.072736 263 2935ft 166kts
30-May-20 17:21 36.073705 -115.126877 265 2126ft 127kts
30-May-20 17:22 36.074883 -115.146293 317 2103ft 21kts
30-May-20 17:23 36.076994 -115.146560 0 2103ft 0kts
30-May-20 17:24 36.078285 -115.147235 355 2102ft 11kts
30-May-20 17:25 36.079625 -115.146736 22 2096ft 0kts
30-May-20 17:26 36.079625 -115.146736 22 2096ft 0kts
30-May-20 17:27 36.079625 -115.146736 22 2096ft 0kts
30-May-20 17:28 36.079625 -115.146736 22 2096ft 0kts
30-May-20 17:29 36.079625 -115.146736 22 2096ft 0kts
30-May-20 17:30 36.079625 -115.146736 22 2096ft 0kts

Navigation Log

Ident Type
Flight plan parsing failed, navigation log unavailable